Time;durP1;ratioP1;P1;durP2;ratioP2;P2;SDS_P1;SDS_P2;PMS_P1;PMS_P2;Temp;Humidity;BMP_temperature;BMP_pressure;BME280_temperature;BME280_humidity;BME280_pressure;Samples;Min_cycle;Max_cycle;Signal;HPM_P1;HPM_P2
2023/06/18 00:01:06;;;;;;;12.23;11.07;;;14.90;99.90;;;;;;4782032;30;20048;-96
2023/06/18 00:03:33;;;;;;;12.43;11.13;;;14.80;99.90;;;;;;4782219;30;20260;-95
2023/06/18 00:06:00;;;;;;;14.02;11.38;;;14.80;99.90;;;;;;4771735;30;20048;-96
2023/06/18 00:08:29;;;;;;;13.52;12.20;;;14.60;99.90;;;;;;4754945;30;20067;-96
2023/06/18 00:11:03;;;;;;;13.90;12.60;;;14.80;99.90;;;;;;4774143;29;20074;-95
2023/06/18 00:13:33;;;;;;;13.52;12.23;;;15.00;99.90;;;;;;4773438;30;20090;-96
2023/06/18 00:16:00;;;;;;;15.70;14.02;;;14.80;99.90;;;;;;4786901;30;20079;-96
2023/06/18 00:18:29;;;;;;;11.85;10.75;;;14.70;99.90;;;;;;4781143;30;20051;-96
2023/06/18 00:21:01;;;;;;;15.15;8.68;;;14.80;99.90;;;;;;4769188;30;20048;-96
2023/06/18 00:23:27;;;;;;;8.73;7.93;;;14.80;99.90;;;;;;4779255;30;20046;-96
2023/06/18 00:25:53;;;;;;;8.43;7.72;;;14.70;99.90;;;;;;4763439;30;20135;-96
2023/06/18 00:28:19;;;;;;;9.45;8.55;;;14.70;99.90;;;;;;4776935;30;20043;-96
2023/06/18 00:30:45;;;;;;;8.75;7.85;;;14.60;99.90;;;;;;4739926;30;20404;-96
2023/06/18 00:33:11;;;;;;;9.57;8.68;;;14.60;99.90;;;;;;4748300;30;20052;-96
2023/06/18 00:35:39;;;;;;;12.55;11.13;;;14.60;99.90;;;;;;4762018;30;20055;-96
2023/06/18 00:38:05;;;;;;;12.48;11.27;;;14.00;99.90;;;;;;4778106;30;20036;-96
2023/06/18 00:40:31;;;;;;;11.17;10.07;;;14.60;99.90;;;;;;4746235;30;20076;-96
2023/06/18 00:42:57;;;;;;;11.38;10.38;;;14.70;99.90;;;;;;4746697;30;20054;-96
2023/06/18 00:45:23;;;;;;;11.35;10.23;;;15.90;99.90;;;;;;4757266;30;20139;-96
2023/06/18 00:47:52;;;;;;;13.25;11.80;;;14.50;99.90;;;;;;4747556;30;20066;-96
2023/06/18 00:50:19;;;;;;;14.27;12.77;;;14.50;99.90;;;;;;4745858;30;20044;-96
2023/06/18 00:52:47;;;;;;;14.27;12.73;;;14.50;99.90;;;;;;4773165;30;20448;-94
2023/06/18 00:55:16;;;;;;;13.68;12.27;;;14.50;99.90;;;;;;4745501;30;20051;-96
2023/06/18 00:57:59;;;;;;;14.43;12.82;;;14.50;99.90;;;;;;4760295;30;20122;-96
2023/06/18 01:00:26;;;;;;;12.85;11.55;;;14.50;99.90;;;;;;4747444;30;20090;-96
2023/06/18 01:02:53;;;;;;;7.20;6.50;;;14.50;99.90;;;;;;4745762;30;20051;-96
2023/06/18 01:05:20;;;;;;;38.63;7.07;;;14.50;99.90;;;;;;4745392;30;20509;-96
2023/06/18 01:07:49;;;;;;;37.63;6.35;;;16.00;99.90;;;;;;4761130;30;20047;-96
2023/06/18 01:10:16;;;;;;;4.70;4.18;;;14.30;99.90;;;;;;4751982;30;20065;-96
2023/06/18 01:12:46;;;;;;;3.90;3.53;;;14.10;99.90;;;;;;4745332;30;20122;-96
2023/06/18 01:15:12;;;;;;;4.65;3.78;;;14.00;99.90;;;;;;4743255;30;20480;-96
2023/06/18 01:17:39;;;;;;;3.65;3.35;;;13.90;99.90;;;;;;4749897;30;20047;-95
2023/06/18 01:20:12;;;;;;;;;;;13.90;99.90;;;;;;4746533;30;20043;-96
2023/06/18 01:22:53;;;;;;;4.75;4.03;;;13.90;99.90;;;;;;4747948;30;20366;-96
2023/06/18 01:25:22;;;;;;;5.28;4.78;;;13.80;99.90;;;;;;4745722;30;20043;-95
2023/06/18 01:27:50;;;;;;;6.68;6.07;;;13.80;99.90;;;;;;4745914;30;20052;-96
2023/06/18 01:30:16;;;;;;;12.95;6.97;;;13.80;99.90;;;;;;4757903;30;20587;-96
2023/06/18 01:32:42;;;;;;;6.70;6.10;;;13.70;99.90;;;;;;4728582;30;20703;-96
2023/06/18 01:35:14;;;;;;;6.82;6.13;;;13.80;99.90;;;;;;4756372;30;20051;-96
2023/06/18 01:38:02;;;;;;;6.85;6.20;;;13.80;99.90;;;;;;4757395;30;20040;-96
2023/06/18 01:40:50;;;;;;;8.77;6.70;;;13.70;99.90;;;;;;4742636;30;20574;-96
2023/06/18 01:43:26;;;;;;;7.32;6.53;;;13.70;99.90;;;;;;4743482;30;20134;-96
2023/06/18 01:45:57;;;;;;;7.25;6.65;;;13.70;99.90;;;;;;4755888;30;20066;-96
2023/06/18 01:48:26;;;;;;;8.40;6.85;;;13.60;99.90;;;;;;4763249;30;20059;-96
2023/06/18 01:50:53;;;;;;;6.60;6.00;;;13.60;99.90;;;;;;4754090;30;20048;-96
2023/06/18 01:53:23;;;;;;;5.55;4.93;;;13.50;99.90;;;;;;4758273;30;20048;-96
2023/06/18 01:55:52;;;;;;;26.45;5.38;;;13.50;99.90;;;;;;4757938;30;20051;-96
2023/06/18 01:58:21;;;;;;;18.85;6.07;;;13.50;99.90;;;;;;4760159;30;20100;-96
2023/06/18 02:00:48;;;;;;;9.93;7.10;;;13.50;99.90;;;;;;4774321;30;20090;-96
2023/06/18 02:03:14;;;;;;;7.32;6.60;;;13.80;99.90;;;;;;4743797;30;20044;-95
2023/06/18 02:05:40;;;;;;;8.18;7.40;;;13.40;99.90;;;;;;4741881;30;20058;-96
2023/06/18 02:08:05;;;;;;;12.20;8.80;;;13.40;99.90;;;;;;4757851;30;20093;-96
2023/06/18 02:10:31;;;;;;;10.38;7.97;;;13.40;99.90;;;;;;4755516;30;20059;-96
2023/06/18 02:13:18;;;;;;;76.43;14.55;;;13.40;99.90;;;;;;4766686;30;20040;-96
2023/06/18 02:16:03;;;;;;;67.50;15.25;;;13.50;99.90;;;;;;4771922;30;20056;-96
2023/06/18 02:18:30;;;;;;;68.43;15.85;;;13.60;99.90;;;;;;4760626;30;20063;-96
2023/06/18 02:20:55;;;;;;;38.80;15.80;;;13.50;99.90;;;;;;4756107;30;20055;-96
2023/06/18 02:23:22;;;;;;;54.75;16.45;;;13.50;99.90;;;;;;4754477;30;20583;-96
2023/06/18 02:25:48;;;;;;;76.27;16.80;;;13.60;99.90;;;;;;4754271;30;20138;-96
2023/06/18 02:28:14;;;;;;;63.85;17.88;;;13.60;99.90;;;;;;4742326;30;20091;-96
2023/06/18 02:30:42;;;;;;;88.22;18.38;;;13.70;99.90;;;;;;4771015;30;20055;-96
2023/06/18 02:33:10;;;;;;;175.88;21.85;;;13.30;99.90;;;;;;4769020;29;20024;-96
2023/06/18 02:35:45;;;;;;;135.75;19.27;;;13.70;99.90;;;;;;4753983;30;20135;-96
2023/06/18 02:38:20;;;;;;;149.32;20.63;;;13.30;99.90;;;;;;4783917;30;20044;-96
2023/06/18 02:40:46;;;;;;;110.35;19.58;;;13.50;99.90;;;;;;4745968;30;20051;-96
2023/06/18 02:43:15;;;;;;;37.63;14.75;;;13.80;99.90;;;;;;4767336;30;20054;-96
2023/06/18 02:45:41;;;;;;;33.53;13.70;;;13.60;99.90;;;;;;4748021;30;20060;-96
2023/06/18 02:48:07;;;;;;;53.50;15.77;;;13.70;99.90;;;;;;4751532;30;20516;-95
2023/06/18 02:50:33;;;;;;;74.68;15.68;;;14.00;99.90;;;;;;4760375;30;20047;-96
2023/06/18 02:52:59;;;;;;;64.30;15.23;;;13.90;99.90;;;;;;4755636;30;20043;-96
2023/06/18 02:55:25;;;;;;;38.20;12.90;;;13.90;99.90;;;;;;4767552;30;20086;-96
2023/06/18 02:57:53;;;;;;;28.65;12.80;;;13.90;99.90;;;;;;4768125;30;20089;-96
2023/06/18 03:00:36;;;;;;;30.00;12.43;;;13.60;99.90;;;;;;4768027;30;20052;-96
2023/06/18 03:03:30;;;;;;;40.47;13.05;;;13.60;99.90;;;;;;4759304;30;20059;-96
2023/06/18 03:06:00;;;;;;;42.38;13.35;;;13.40;99.90;;;;;;4774902;30;20056;-96
2023/06/18 03:08:36;;;;;;;26.50;12.52;;;13.70;99.90;;;;;;4753348;30;20040;-96
2023/06/18 03:11:26;;;;;;;52.63;12.98;;;13.90;99.90;;;;;;4770863;30;20075;-96
2023/06/18 03:13:59;;;;;;;52.85;14.55;;;13.90;99.90;;;;;;4760804;30;20035;-96
2023/06/18 03:16:26;;;;;;;29.88;14.65;;;13.90;99.90;;;;;;4760152;30;20047;-96
2023/06/18 03:18:56;;;;;;;43.60;14.23;;;14.00;99.90;;;;;;4763351;30;20130;-96
2023/06/18 03:21:22;;;;;;;37.95;14.43;;;13.80;99.90;;;;;;4767142;30;20465;-96
2023/06/18 03:23:51;;;;;;;52.83;15.82;;;14.00;99.90;;;;;;4783291;30;20043;-96
2023/06/18 03:26:21;;;;;;;52.90;15.70;;;14.00;99.90;;;;;;4772185;30;20073;-96
2023/06/18 03:28:54;;;;;;;79.95;17.05;;;14.10;99.90;;;;;;4772314;30;20051;-96
2023/06/18 03:31:26;;;;;;;93.30;17.90;;;14.10;99.90;;;;;;4767854;30;20047;-95
2023/06/18 03:33:54;;;;;;;96.75;20.35;;;14.00;99.90;;;;;;4749052;30;20062;-96
2023/06/18 03:36:20;;;;;;;149.10;22.65;;;14.10;99.90;;;;;;4763816;30;20078;-96
2023/06/18 03:38:55;;;;;;;123.30;20.45;;;13.90;99.90;;;;;;4767274;30;20039;-96
2023/06/18 03:41:25;;;;;;;154.18;21.27;;;14.20;99.90;;;;;;4772172;30;20044;-95
2023/06/18 03:43:55;;;;;;;119.60;20.63;;;14.10;99.90;;;;;;4757852;29;20058;-96
2023/06/18 03:46:33;;;;;;;53.65;17.20;;;13.70;99.90;;;;;;4776233;30;20064;-96
2023/06/18 03:49:07;;;;;;;98.97;19.55;;;14.20;99.90;;;;;;4779096;30;20031;-96
2023/06/18 03:51:46;;;;;;;60.97;18.70;;;14.40;99.90;;;;;;4778519;30;20044;-96
2023/06/18 03:54:19;;;;;;;102.32;22.92;;;14.30;99.90;;;;;;4774326;29;20064;-96
2023/06/18 03:56:51;;;;;;;59.55;20.77;;;14.30;99.90;;;;;;4758929;30;20047;-96
2023/06/18 03:59:18;;;;;;;57.15;17.80;;;14.40;99.90;;;;;;4766318;30;20086;-96
2023/06/18 04:01:44;;;;;;;103.90;21.25;;;14.70;99.90;;;;;;4761466;30;20193;-96
2023/06/18 04:04:13;;;;;;;97.22;21.20;;;14.50;99.90;;;;;;4773315;30;20048;-96
2023/06/18 04:06:39;;;;;;;122.80;22.40;;;14.50;99.90;;;;;;4760150;30;20505;-96
2023/06/18 04:09:05;;;;;;;86.40;19.83;;;14.50;99.90;;;;;;4736034;30;20050;-95
2023/06/18 04:11:30;;;;;;;129.23;20.73;;;14.50;99.90;;;;;;4749786;30;20111;-96
2023/06/18 04:13:58;;;;;;;83.82;19.67;;;14.60;99.90;;;;;;4761123;30;20479;-96
2023/06/18 04:16:24;;;;;;;52.85;18.00;;;14.60;99.90;;;;;;4764897;30;20040;-95
2023/06/18 04:18:51;;;;;;;69.03;19.37;;;14.60;99.90;;;;;;4774796;30;20039;-95
2023/06/18 04:21:35;;;;;;;93.25;17.88;;;14.70;99.90;;;;;;4770471;30;20105;-96
2023/06/18 04:24:02;;;;;;;75.03;19.55;;;14.70;99.90;;;;;;4766734;30;20067;-96
2023/06/18 04:26:31;;;;;;;91.28;20.20;;;14.70;99.90;;;;;;4763229;30;20044;-96
2023/06/18 04:28:56;;;;;;;68.88;20.10;;;14.60;99.90;;;;;;4759543;30;20044;-95
2023/06/18 04:31:24;;;;;;;49.30;18.92;;;14.70;99.90;;;;;;4744846;30;20104;-96
2023/06/18 04:34:01;;;;;;;49.92;17.02;;;14.70;99.90;;;;;;4745717;30;20040;-96
2023/06/18 04:36:35;;;;;;;49.05;17.77;;;;;;;;;;4750800;30;20047;-96
2023/06/18 04:39:02;;;;;;;59.08;18.35;;;14.70;99.90;;;;;;4752402;30;20043;-96
2023/06/18 04:41:28;;;;;;;73.50;18.37;;;14.70;99.90;;;;;;4749219;30;20040;-96
2023/06/18 04:43:55;;;;;;;48.90;18.42;;;14.70;99.90;;;;;;4754056;30;20071;-96
2023/06/18 04:46:37;;;;;;;;;;;14.80;99.90;;;;;;4769730;30;20483;-96
2023/06/18 04:49:04;;;;;;;27.73;17.23;;;14.70;99.90;;;;;;4764188;30;19926;-95
2023/06/18 04:51:43;;;;;;;25.23;16.67;;;14.80;99.90;;;;;;4787096;29;20735;-95
2023/06/18 04:54:11;;;;;;;26.75;16.88;;;14.90;99.90;;;;;;4763410;30;20048;-96
2023/06/18 04:56:40;;;;;;;18.50;15.43;;;14.90;99.90;;;;;;4766725;30;20385;-96
2023/06/18 04:59:06;;;;;;;18.75;15.68;;;15.00;99.90;;;;;;4771365;30;20055;-96
2023/06/18 05:01:36;;;;;;;21.48;15.40;;;15.00;99.90;;;;;;4770755;30;20047;-96
2023/06/18 05:04:04;;;;;;;17.30;14.57;;;15.00;99.90;;;;;;4769883;30;20036;-96
2023/06/18 05:06:31;;;;;;;15.98;13.32;;;15.10;99.90;;;;;;4773920;30;20104;-96
2023/06/18 05:09:00;;;;;;;15.10;13.50;;;15.10;99.90;;;;;;4747462;30;20077;-96
2023/06/18 05:11:26;;;;;;;16.52;14.35;;;15.10;99.90;;;;;;4761493;30;20087;-96
2023/06/18 05:13:52;;;;;;;16.83;13.80;;;15.00;99.90;;;;;;4749973;30;20564;-96
2023/06/18 05:16:19;;;;;;;15.27;13.53;;;15.20;99.90;;;;;;4785501;30;20047;-96
2023/06/18 05:18:46;;;;;;;15.38;13.77;;;15.30;99.90;;;;;;4766721;30;20063;-96
2023/06/18 05:21:15;;;;;;;16.58;14.18;;;15.20;99.90;;;;;;4780972;30;20095;-96
2023/06/18 05:23:41;;;;;;;13.60;12.20;;;15.40;99.90;;;;;;4766975;30;20081;-96
2023/06/18 05:26:13;;;;;;;13.13;11.82;;;15.50;99.90;;;;;;4753947;30;20051;-96
2023/06/18 05:28:40;;;;;;;13.23;11.82;;;15.20;99.90;;;;;;4757571;30;20055;-96
2023/06/18 05:31:12;;;;;;;13.40;12.00;;;16.10;99.90;;;;;;4772032;30;20043;-96
2023/06/18 05:33:37;;;;;;;12.77;11.55;;;15.50;99.90;;;;;;4761480;30;20047;-96
2023/06/18 05:36:04;;;;;;;13.05;11.50;;;15.80;99.90;;;;;;4767376;30;20058;-96
2023/06/18 05:38:29;;;;;;;12.48;11.27;;;15.90;99.90;;;;;;4759027;30;20040;-96
2023/06/18 05:40:55;;;;;;;12.80;11.52;;;15.90;99.90;;;;;;4750154;29;20071;-96
2023/06/18 05:43:21;;;;;;;12.30;10.82;;;15.90;99.90;;;;;;4763027;30;20556;-96
2023/06/18 05:45:47;;;;;;;11.75;10.75;;;16.00;99.90;;;;;;4780971;30;20075;-96
2023/06/18 05:48:14;;;;;;;12.25;10.95;;;16.10;99.90;;;;;;4744309;30;20044;-96
2023/06/18 05:50:41;;;;;;;12.38;11.18;;;16.20;99.90;;;;;;4757306;30;20619;-96
2023/06/18 05:53:07;;;;;;;11.93;10.73;;;16.30;99.90;;;;;;4755292;30;20090;-96
2023/06/18 05:55:33;;;;;;;11.82;10.63;;;16.50;99.90;;;;;;4758065;30;20555;-96
2023/06/18 05:57:59;;;;;;;11.10;10.10;;;16.90;99.90;;;;;;4742987;30;20185;-96
2023/06/18 06:00:26;;;;;;;10.45;9.45;;;17.40;99.90;;;;;;4740455;30;20120;-96
2023/06/18 06:02:52;;;;;;;9.83;9.03;;;17.40;99.90;;;;;;4755992;30;20052;-96
2023/06/18 06:05:18;;;;;;;10.00;9.07;;;17.70;99.90;;;;;;4727638;30;20473;-96
2023/06/18 06:07:45;;;;;;;10.15;9.25;;;17.80;99.90;;;;;;4764971;30;20052;-96
2023/06/18 06:10:16;;;;;;;10.73;9.73;;;17.90;99.90;;;;;;4767222;30;20054;-96
2023/06/18 06:12:42;;;;;;;9.75;8.82;;;18.20;99.90;;;;;;4770210;30;20086;-96
2023/06/18 06:15:11;;;;;;;9.80;8.95;;;18.20;99.90;;;;;;4749608;30;20071;-96
2023/06/18 06:17:38;;;;;;;9.43;8.63;;;18.30;99.90;;;;;;4767363;30;20073;-96
2023/06/18 06:20:06;;;;;;;9.70;8.80;;;18.60;99.90;;;;;;4769855;30;20527;-96
2023/06/18 06:22:32;;;;;;;9.15;8.32;;;19.00;99.90;;;;;;4744654;30;20059;-96
2023/06/18 06:24:58;;;;;;;8.70;8.00;;;19.00;99.90;;;;;;4726401;30;20455;-89
2023/06/18 06:27:24;;;;;;;9.57;8.77;;;19.20;99.90;;;;;;4754173;30;20147;-92
2023/06/18 06:29:50;;;;;;;8.88;8.07;;;19.20;99.90;;;;;;4732079;29;20075;-92
2023/06/18 06:32:16;;;;;;;8.70;7.90;;;19.20;99.90;;;;;;4770475;29;20105;-89
2023/06/18 06:34:41;;;;;;;9.20;8.40;;;18.90;99.90;;;;;;4778281;29;20075;-90
2023/06/18 06:37:07;;;;;;;9.32;8.52;;;18.70;99.90;;;;;;4747648;29;20047;-89
2023/06/18 06:39:33;;;;;;;9.38;8.57;;;18.60;99.90;;;;;;4740102;29;20149;-82
2023/06/18 06:41:59;;;;;;;8.25;7.55;;;18.60;99.90;;;;;;4726072;30;20077;-90
2023/06/18 06:44:25;;;;;;;9.75;8.43;;;18.40;99.90;;;;;;4743646;30;20048;-91
2023/06/18 06:46:50;;;;;;;9.35;8.55;;;18.40;99.90;;;;;;4731291;30;20059;-90
2023/06/18 06:49:16;;;;;;;9.75;8.95;;;18.50;99.90;;;;;;4771132;30;20656;-90
2023/06/18 06:51:42;;;;;;;9.43;8.55;;;18.70;99.90;;;;;;4732184;30;20035;-90
2023/06/18 06:54:09;;;;;;;8.90;8.20;;;19.30;99.90;;;;;;4744281;30;20051;-91
2023/06/18 06:56:36;;;;;;;9.48;8.65;;;19.80;99.90;;;;;;4725002;30;20048;-90
2023/06/18 06:59:01;;;;;;;;;;;20.00;99.90;;;;;;4726790;30;20047;-90
2023/06/18 07:01:27;;;;;;;9.45;8.55;;;20.10;99.90;;;;;;4751880;30;20268;-91
2023/06/18 07:03:53;;;;;;;9.35;8.52;;;20.20;99.90;;;;;;4732711;30;20102;-91
2023/06/18 07:06:19;;;;;;;9.25;8.43;;;20.60;99.90;;;;;;4739190;30;20048;-91
2023/06/18 07:08:45;;;;;;;9.20;8.40;;;21.20;99.90;;;;;;4758835;30;20079;-90
2023/06/18 07:11:10;;;;;;;9.27;8.43;;;21.90;99.90;;;;;;4745821;30;20079;-92
2023/06/18 07:13:36;;;;;;;9.38;8.52;;;22.20;99.90;;;;;;4734021;30;20522;-90
2023/06/18 07:16:02;;;;;;;9.05;8.25;;;22.30;99.90;;;;;;4732176;30;20488;-90
2023/06/18 07:18:28;;;;;;;9.00;8.10;;;22.70;99.90;;;;;;4724673;30;20050;-91
2023/06/18 07:20:54;;;;;;;9.07;8.27;;;23.00;99.90;;;;;;4751847;30;21081;-90
2023/06/18 07:23:20;;;;;;;8.68;7.88;;;23.20;99.90;;;;;;4734592;30;20063;-89
2023/06/18 07:25:45;;;;;;;8.00;7.30;;;23.30;99.90;;;;;;4726855;30;20079;-91
2023/06/18 07:28:11;;;;;;;8.93;8.03;;;23.60;99.90;;;;;;4724803;30;20044;-91
2023/06/18 07:30:37;;;;;;;8.83;8.03;;;23.90;99.90;;;;;;4729128;30;20050;-90
2023/06/18 07:33:05;;;;;;;8.00;7.30;;;24.10;99.90;;;;;;4723532;30;20687;-88
2023/06/18 07:35:31;;;;;;;8.55;7.70;;;24.10;99.90;;;;;;4770467;30;20131;-89
2023/06/18 07:37:57;;;;;;;8.63;7.73;;;23.60;99.90;;;;;;4727459;30;20082;-91
2023/06/18 07:40:23;;;;;;;8.73;7.93;;;23.00;99.90;;;;;;4728266;30;20052;-92
2023/06/18 07:42:48;;;;;;;8.73;7.93;;;22.80;99.90;;;;;;4753353;30;20047;-89
2023/06/18 07:45:14;;;;;;;9.35;8.43;;;23.00;99.90;;;;;;4740504;30;20054;-90
2023/06/18 07:47:40;;;;;;;8.43;7.73;;;23.20;99.90;;;;;;4751817;29;20047;-92
2023/06/18 07:50:08;;;;;;;8.47;7.77;;;23.40;99.90;;;;;;4781359;29;20382;-89
2023/06/18 07:52:34;;;;;;;8.57;7.78;;;23.70;99.90;;;;;;4745516;30;20077;-88
2023/06/18 07:55:00;;;;;;;9.07;8.27;;;24.00;99.90;;;;;;4751700;29;20623;-90
2023/06/18 07:57:26;;;;;;;8.37;7.67;;;24.40;99.90;;;;;;4733267;30;20067;-90
2023/06/18 07:59:52;;;;;;;8.20;7.50;;;24.60;99.90;;;;;;4730984;30;20049;-88
2023/06/18 08:02:17;;;;;;;7.37;6.77;;;24.50;99.90;;;;;;4738505;30;21045;-89
2023/06/18 08:04:43;;;;;;;8.27;7.57;;;24.50;99.90;;;;;;4728123;30;20055;-93
2023/06/18 08:07:14;;;;;;;8.13;7.33;;;24.50;99.90;;;;;;4739447;30;20047;-92
2023/06/18 08:09:40;;;;;;;7.82;7.13;;;24.20;99.90;;;;;;4753726;30;20056;-90
2023/06/18 08:12:12;;;;;;;10.80;6.47;;;23.60;99.90;;;;;;4746097;30;20496;-88
2023/06/18 08:14:38;;;;;;;8.65;7.90;;;23.30;99.90;;;;;;4764566;30;20066;-89
2023/06/18 08:17:04;;;;;;;7.90;7.20;;;23.10;99.90;;;;;;4744967;30;20082;-89
2023/06/18 08:19:33;;;;;;;8.07;7.27;;;23.10;99.90;;;;;;4725802;30;20687;-89
2023/06/18 08:21:59;;;;;;;7.60;6.90;;;23.30;99.90;;;;;;4760184;30;20508;-89
2023/06/18 08:24:25;;;;;;;6.97;6.33;;;23.20;99.90;;;;;;4749001;30;20647;-90
2023/06/18 08:26:51;;;;;;;7.07;6.47;;;23.20;99.90;;;;;;4757422;30;20119;-88
2023/06/18 08:29:17;;;;;;;7.20;6.50;;;23.50;99.90;;;;;;4753588;30;20140;-89
2023/06/18 08:31:45;;;;;;;6.93;6.33;;;23.70;99.90;;;;;;4725078;30;20054;-90
2023/06/18 08:34:11;;;;;;;7.57;6.60;;;23.80;99.90;;;;;;4757466;30;20082;-90
2023/06/18 08:36:37;;;;;;;8.35;5.60;;;23.90;99.90;;;;;;4743967;30;20124;-90
2023/06/18 08:39:04;;;;;;;6.15;5.55;;;24.00;99.90;;;;;;4758156;30;20051;-90
2023/06/18 08:41:30;;;;;;;7.15;6.50;;;24.20;99.90;;;;;;4721110;30;20113;-88
2023/06/18 08:44:00;;;;;;;7.20;5.50;;;24.10;99.90;;;;;;4728291;30;20052;-88
2023/06/18 08:46:27;;;;;;;6.20;5.60;;;24.40;99.90;;;;;;4757686;30;20059;-89
2023/06/18 08:49:00;;;;;;;6.65;5.43;;;24.60;99.90;;;;;;4766935;30;20507;-91
2023/06/18 08:51:27;;;;;;;7.35;5.00;;;24.90;99.90;;;;;;4729263;30;20067;-91
2023/06/18 08:54:04;;;;;;;5.63;5.00;;;25.60;99.90;;;;;;4756100;30;20060;-88
2023/06/18 08:56:31;;;;;;;6.05;5.30;;;25.90;99.90;;;;;;4724950;30;20044;-94
2023/06/18 08:59:19;;;;;;;6.57;5.97;;;26.10;99.90;;;;;;4726697;30;20040;-91
2023/06/18 09:01:52;;;;;;;6.07;5.47;;;26.10;99.90;;;;;;4752346;30;20052;-88
2023/06/18 09:04:19;;;;;;;6.15;5.55;;;26.10;99.90;;;;;;4726345;30;20122;-89
2023/06/18 09:06:53;;;;;;;5.22;4.72;;;26.00;99.90;;;;;;4741777;30;20040;-90
2023/06/18 09:09:22;;;;;;;6.30;4.95;;;26.20;99.90;;;;;;4745462;29;20063;-90
2023/06/18 09:11:47;;;;;;;6.50;5.90;;;26.10;99.90;;;;;;4747275;29;20047;-91
2023/06/18 09:14:16;;;;;;;6.90;6.30;;;25.60;99.90;;;;;;4753892;29;20055;-92
2023/06/18 09:16:43;;;;;;;5.72;5.22;;;25.30;99.90;;;;;;4731946;30;20048;-91
2023/06/18 09:21:40;;;;;;;6.35;5.78;;;25.00;99.90;;;;;;4784876;29;20076;-40
2023/06/18 09:24:14;;;;;;;5.82;5.22;;;25.20;99.90;;;;;;4779018;29;20066;-40
2023/06/18 09:26:48;;;;;;;5.82;5.03;;;25.20;99.90;;;;;;4782285;29;20495;-40
2023/06/18 09:29:14;;;;;;;6.20;5.60;;;25.40;99.90;;;;;;4779144;29;20549;-39
2023/06/18 09:31:44;;;;;;;6.13;5.15;;;25.60;99.90;;;;;;4776768;29;20288;-40
2023/06/18 09:34:18;;;;;;;5.72;5.18;;;25.70;99.90;;;;;;4782162;29;20551;-40
2023/06/18 09:36:49;;;;;;;7.32;5.60;;;25.80;99.90;;;;;;4768379;30;20488;-40
2023/06/18 09:39:19;;;;;;;6.05;5.28;;;26.00;99.90;;;;;;4783166;29;20050;-40
2023/06/18 09:41:46;;;;;;;6.07;4.95;;;26.30;99.90;;;;;;4780237;29;20062;-40
2023/06/18 09:44:14;;;;;;;5.68;5.05;;;26.50;99.90;;;;;;4770350;30;20403;-41
2023/06/18 09:46:44;;;;;;;5.43;4.90;;;26.70;99.90;;;;;;4780697;29;20079;-41
2023/06/18 09:49:17;;;;;;;4.90;4.22;;;26.70;99.90;;;;;;4786151;29;20069;-39
2023/06/18 09:51:44;;;;;;;6.07;4.72;;;26.70;99.90;;;;;;4767427;30;20453;-40
2023/06/18 09:54:11;;;;;;;5.22;4.72;;;26.90;99.90;;;;;;4777601;29;20319;-40
2023/06/18 09:56:55;;;;;;;5.47;4.40;;;26.80;99.90;;;;;;4775563;30;20055;-40
2023/06/18 09:59:22;;;;;;;4.75;4.05;;;26.80;99.90;;;;;;4782638;29;20100;-41
2023/06/18 10:01:49;;;;;;;5.20;3.72;;;26.70;99.90;;;;;;4769091;30;20054;-40
2023/06/18 10:04:25;;;;;;;;;;;26.70;99.90;;;;;;4775815;29;20563;-40
2023/06/18 10:06:58;;;;;;;4.05;3.63;;;26.60;99.90;;;;;;4764620;30;19979;-40
2023/06/18 10:09:37;;;;;;;10.60;3.85;;;26.60;99.90;;;;;;4778683;29;20130;-40
2023/06/18 10:12:05;;;;;;;5.00;4.47;;;26.80;99.90;;;;;;4778891;29;20105;-40
2023/06/18 10:14:33;;;;;;;4.63;3.75;;;26.90;99.90;;;;;;4769771;29;20062;-41
2023/06/18 10:17:14;;;;;;;4.10;3.60;;;27.00;99.90;;;;;;4779280;29;20594;-40
2023/06/18 10:19:48;;;;;;;4.50;4.10;;;27.10;99.90;;;;;;4782484;29;20055;-40
2023/06/18 10:22:16;;;;;;;4.57;4.10;;;27.40;99.90;;;;;;4786696;29;20142;-40
2023/06/18 10:25:17;;;;;;;4.75;3.92;;;27.40;99.90;;;;;;4784229;29;20193;-40
2023/06/18 10:28:02;;;;;;;8.57;4.20;;;27.70;99.90;;;;;;4780449;29;20110;-40
2023/06/18 10:30:29;;;;;;;6.75;3.95;;;28.00;99.90;;;;;;4779660;29;20116;-40
2023/06/18 10:32:55;;;;;;;;;;;27.90;99.70;;;;;;4765084;29;20499;-40
2023/06/18 10:35:28;;;;;;;5.35;3.83;;;28.10;99.90;;;;;;4775327;29;19930;-40
2023/06/18 10:37:55;;;;;;;4.18;3.78;;;28.20;97.80;;;;;;4780823;29;20047;-40
2023/06/18 10:40:21;;;;;;;;;;;28.20;95.30;;;;;;4767628;29;20122;-40
2023/06/18 10:42:50;;;;;;;6.65;3.78;;;28.30;96.90;;;;;;4782043;29;20016;-40
2023/06/18 10:45:17;;;;;;;3.90;3.50;;;28.50;99.30;;;;;;4767977;30;20081;-40
2023/06/18 10:47:44;;;;;;;5.57;3.50;;;28.60;97.80;;;;;;4782166;29;20802;-40
2023/06/18 10:50:16;;;;;;;3.67;3.35;;;28.60;91.40;;;;;;4775785;29;20048;-40
2023/06/18 10:52:50;;;;;;;5.97;3.60;;;28.50;87.00;;;;;;4775298;29;20059;-40
2023/06/18 10:55:21;;;;;;;4.00;3.60;;;28.50;88.30;;;;;;4777619;29;20522;-40
2023/06/18 10:57:50;;;;;;;5.97;3.50;;;28.60;89.10;;;;;;4768546;30;20058;-40
2023/06/18 11:00:33;;;;;;;3.58;3.28;;;28.60;87.70;;;;;;4779207;29;20051;-39
2023/06/18 11:03:00;;;;;;;6.00;3.08;;;28.80;87.60;;;;;;4777408;29;20043;-40
2023/06/18 11:05:47;;;;;;;38.30;4.75;;;28.90;85.20;;;;;;4763727;30;20039;-40
2023/06/18 11:08:43;;;;;;;4.70;3.50;;;28.90;82.60;;;;;;4772563;29;20056;-40
2023/06/18 11:19:46;;;;;;;3.58;3.28;;;28.60;81.70;;;;;;4774287;30;20092;-96
2023/06/18 11:22:17;;;;;;;5.72;3.22;;;28.80;80.20;;;;;;4773072;30;20066;-96
2023/06/18 11:36:50;;;;;;;3.58;3.28;;;28.10;76.70;;;;;;4712201;30;20081;-96
2023/06/18 11:54:08;;;;;;;4.63;3.10;;;27.50;79.10;;;;;;4663558;30;20059;-96
2023/06/18 11:56:55;;;;;;;3.40;3.10;;;27.50;80.10;;;;;;4654372;30;20530;-95
2023/06/18 11:59:39;;;;;;;;;;;27.80;81.50;;;;;;4686672;30;20053;-96
2023/06/18 12:02:26;;;;;;;7.55;3.15;;;27.80;83.00;;;;;;4685949;30;19983;-96
2023/06/18 12:09:13;;;;;;;3.47;3.13;;;28.00;77.70;;;;;;4656021;30;20048;-96
2023/06/18 12:12:08;;;;;;;3.42;3.13;;;28.00;79.20;;;;;;4714364;30;20065;-96
2023/06/18 12:15:16;;;;;;;9.73;3.65;;;28.00;78.10;;;;;;4740527;30;20102;-95
2023/06/18 12:18:06;;;;;;;3.38;3.00;;;27.80;80.10;;;;;;4725346;30;20673;-95
2023/06/18 12:20:46;;;;;;;3.70;3.28;;;27.90;80.30;;;;;;4722311;30;20186;-96
2023/06/18 12:23:59;;;;;;;3.97;3.35;;;27.90;80.00;;;;;;4736839;30;20135;-96
2023/06/18 13:00:22;;;;;;;4.32;3.55;;;28.30;75.20;;;;;;4714595;30;20568;-95
2023/06/18 13:02:51;;;;;;;4.82;2.90;;;28.30;75.80;;;;;;4731154;30;20128;-96
2023/06/18 13:05:18;;;;;;;3.40;2.80;;;28.30;75.20;;;;;;4709376;30;20037;-95
2023/06/18 13:07:51;;;;;;;3.78;3.33;;;28.20;74.10;;;;;;4703405;30;20045;-95
2023/06/18 13:10:19;;;;;;;9.32;3.00;;;28.10;73.20;;;;;;4717759;30;20051;-96
2023/06/18 13:12:44;;;;;;;4.15;3.40;;;28.00;73.60;;;;;;4701719;30;20078;-96
2023/06/18 13:15:11;;;;;;;3.88;2.85;;;28.00;73.50;;;;;;4714792;30;20037;-95
2023/06/18 13:17:37;;;;;;;5.28;3.05;;;28.00;73.20;;;;;;4706893;30;20091;-96
2023/06/18 13:20:05;;;;;;;3.45;3.15;;;28.00;73.10;;;;;;4708126;30;20053;-95
2023/06/18 13:22:31;;;;;;;5.15;3.28;;;28.00;73.20;;;;;;4730087;30;20056;-95
2023/06/18 13:24:58;;;;;;;4.32;2.97;;;27.90;72.70;;;;;;4709733;30;20051;-96
2023/06/18 13:27:26;;;;;;;3.70;3.30;;;27.90;71.70;;;;;;4686184;30;20553;-95
2023/06/18 13:30:19;;;;;;;3.85;2.80;;;27.80;70.90;;;;;;4734424;30;20052;-96
2023/06/18 13:32:56;;;;;;;3.20;2.90;;;27.70;70.30;;;;;;4730787;24;20072;-33
2023/06/18 13:35:24;;;;;;;3.33;2.75;;;27.70;70.80;;;;;;4730206;30;20052;-33
2023/06/18 13:37:52;;;;;;;4.60;2.97;;;27.70;71.30;;;;;;4716720;30;20048;-33
2023/06/18 13:40:35;;;;;;;3.22;2.92;;;27.70;71.40;;;;;;4732078;30;20048;-33
2023/06/18 13:43:01;;;;;;;2.90;2.63;;;27.70;71.50;;;;;;4731393;30;20412;-33
2023/06/18 13:45:28;;;;;;;3.50;2.90;;;27.60;70.20;;;;;;4728078;30;20055;-33
2023/06/18 13:47:54;;;;;;;5.45;2.70;;;27.60;70.20;;;;;;4721039;30;20053;-33
2023/06/18 13:50:20;;;;;;;3.67;3.08;;;27.60;70.40;;;;;;4720651;30;20059;-33
2023/06/18 13:52:46;;;;;;;5.72;3.45;;;27.60;70.50;;;;;;4746798;30;20091;-33
2023/06/18 13:55:12;;;;;;;3.43;3.13;;;27.60;69.90;;;;;;4716696;30;20130;-33
2023/06/18 13:57:40;;;;;;;4.35;3.00;;;27.60;70.90;;;;;;4732110;30;20420;-33
2023/06/18 14:00:07;;;;;;;3.17;2.80;;;27.70;71.60;;;;;;4714522;30;20056;-33
2023/06/18 14:02:36;;;;;;;3.72;2.80;;;27.70;70.90;;;;;;4746170;30;20071;-33
2023/06/18 14:05:53;;;;;;;5.38;3.10;;;27.70;70.20;;;;;;4736325;30;20514;-33
2023/06/18 14:08:19;;;;;;;3.60;3.20;;;27.70;69.00;;;;;;4730312;30;20040;-33
2023/06/18 14:10:44;;;;;;;3.17;2.87;;;27.60;70.50;;;;;;4729546;30;20118;-33